sensor_id;sensor_type;location;lat;lon;timestamp;temperature;humidity
65707;SHT31;52423;43.512;5.220;2023-07-31T00:01:00;23.82;46.73
65707;SHT31;52423;43.512;5.220;2023-07-31T00:03:25;23.88;46.43
65707;SHT31;52423;43.512;5.220;2023-07-31T00:05:51;23.86;46.96
65707;SHT31;52423;43.512;5.220;2023-07-31T00:08:16;23.85;46.74
65707;SHT31;52423;43.512;5.220;2023-07-31T00:10:41;23.75;46.48
65707;SHT31;52423;43.512;5.220;2023-07-31T00:13:07;23.77;47.27
65707;SHT31;52423;43.512;5.220;2023-07-31T00:15:32;23.71;47.18
65707;SHT31;52423;43.512;5.220;2023-07-31T00:17:58;23.75;47.05
65707;SHT31;52423;43.512;5.220;2023-07-31T00:20:23;23.64;46.85
65707;SHT31;52423;43.512;5.220;2023-07-31T00:22:49;23.71;47.84
65707;SHT31;52423;43.512;5.220;2023-07-31T00:25:14;23.68;46.93
65707;SHT31;52423;43.512;5.220;2023-07-31T00:27:39;23.57;47.22
65707;SHT31;52423;43.512;5.220;2023-07-31T00:30:10;23.60;47.27
65707;SHT31;52423;43.512;5.220;2023-07-31T00:32:35;23.51;47.36
65707;SHT31;52423;43.512;5.220;2023-07-31T00:35:01;23.40;47.95
65707;SHT31;52423;43.512;5.220;2023-07-31T00:37:27;23.47;47.66
65707;SHT31;52423;43.512;5.220;2023-07-31T00:39:52;23.46;48.15
65707;SHT31;52423;43.512;5.220;2023-07-31T00:42:17;23.39;47.99
65707;SHT31;52423;43.512;5.220;2023-07-31T00:44:43;23.43;48.41
65707;SHT31;52423;43.512;5.220;2023-07-31T00:47:08;23.28;49.41
65707;SHT31;52423;43.512;5.220;2023-07-31T00:49:34;23.36;48.88
65707;SHT31;52423;43.512;5.220;2023-07-31T00:51:59;23.26;50.12
65707;SHT31;52423;43.512;5.220;2023-07-31T00:54:25;23.28;49.67
65707;SHT31;52423;43.512;5.220;2023-07-31T00:56:52;23.17;48.93
65707;SHT31;52423;43.512;5.220;2023-07-31T00:59:18;23.20;49.82
65707;SHT31;52423;43.512;5.220;2023-07-31T01:01:44;23.26;49.48
65707;SHT31;52423;43.512;5.220;2023-07-31T01:04:11;23.37;48.84
65707;SHT31;52423;43.512;5.220;2023-07-31T01:09:13;23.06;50.10
65707;SHT31;52423;43.512;5.220;2023-07-31T01:11:49;22.95;50.47
65707;SHT31;52423;43.512;5.220;2023-07-31T01:14:17;23.07;49.81
65707;SHT31;52423;43.512;5.220;2023-07-31T01:16:42;23.17;49.32
65707;SHT31;52423;43.512;5.220;2023-07-31T01:19:09;22.83;50.90
65707;SHT31;52423;43.512;5.220;2023-07-31T01:24:23;22.73;51.49
65707;SHT31;52423;43.512;5.220;2023-07-31T01:27:02;22.73;51.30
65707;SHT31;52423;43.512;5.220;2023-07-31T01:32:07;22.64;51.28
65707;SHT31;52423;43.512;5.220;2023-07-31T01:34:34;22.52;52.15
65707;SHT31;52423;43.512;5.220;2023-07-31T01:36:59;22.71;51.05
65707;SHT31;52423;43.512;5.220;2023-07-31T01:39:25;22.65;50.85
65707;SHT31;52423;43.512;5.220;2023-07-31T01:41:51;22.55;51.79
65707;SHT31;52423;43.512;5.220;2023-07-31T01:44:16;22.37;52.52
65707;SHT31;52423;43.512;5.220;2023-07-31T01:46:42;22.45;51.95
65707;SHT31;52423;43.512;5.220;2023-07-31T01:49:07;22.59;51.30
65707;SHT31;52423;43.512;5.220;2023-07-31T01:51:33;22.49;51.14
65707;SHT31;52423;43.512;5.220;2023-07-31T01:54:00;22.48;50.66
65707;SHT31;52423;43.512;5.220;2023-07-31T01:56:25;22.41;51.59
65707;SHT31;52423;43.512;5.220;2023-07-31T01:58:51;22.51;50.85
65707;SHT31;52423;43.512;5.220;2023-07-31T02:01:16;22.52;50.85
65707;SHT31;52423;43.512;5.220;2023-07-31T02:03:41;22.62;50.44
65707;SHT31;52423;43.512;5.220;2023-07-31T02:06:07;22.61;50.23
65707;SHT31;52423;43.512;5.220;2023-07-31T02:08:32;22.61;50.77
65707;SHT31;52423;43.512;5.220;2023-07-31T02:10:58;22.64;50.38
65707;SHT31;52423;43.512;5.220;2023-07-31T02:13:23;22.49;51.19
65707;SHT31;52423;43.512;5.220;2023-07-31T02:15:49;22.49;51.05
65707;SHT31;52423;43.512;5.220;2023-07-31T02:18:15;22.55;51.13
65707;SHT31;52423;43.512;5.220;2023-07-31T02:20:41;22.37;51.17
65707;SHT31;52423;43.512;5.220;2023-07-31T02:23:06;22.22;52.24
65707;SHT31;52423;43.512;5.220;2023-07-31T02:25:31;22.30;51.28
65707;SHT31;52423;43.512;5.220;2023-07-31T02:27:57;22.24;51.24
65707;SHT31;52423;43.512;5.220;2023-07-31T02:30:22;22.35;51.42
65707;SHT31;52423;43.512;5.220;2023-07-31T02:32:48;22.28;51.55
65707;SHT31;52423;43.512;5.220;2023-07-31T02:35:13;22.30;51.07
65707;SHT31;52423;43.512;5.220;2023-07-31T02:37:41;22.35;51.07
65707;SHT31;52423;43.512;5.220;2023-07-31T02:40:07;22.41;50.59
65707;SHT31;52423;43.512;5.220;2023-07-31T02:42:32;22.47;50.06
65707;SHT31;52423;43.512;5.220;2023-07-31T02:44:58;22.40;49.83
65707;SHT31;52423;43.512;5.220;2023-07-31T02:47:23;22.33;49.92
65707;SHT31;52423;43.512;5.220;2023-07-31T02:49:49;22.30;49.87
65707;SHT31;52423;43.512;5.220;2023-07-31T02:52:14;22.25;49.74
65707;SHT31;52423;43.512;5.220;2023-07-31T02:54:40;22.20;49.62
65707;SHT31;52423;43.512;5.220;2023-07-31T02:57:05;22.15;49.46
65707;SHT31;52423;43.512;5.220;2023-07-31T02:59:30;22.15;50.32
65707;SHT31;52423;43.512;5.220;2023-07-31T03:01:56;22.33;49.76
65707;SHT31;52423;43.512;5.220;2023-07-31T03:04:21;22.17;50.25
65707;SHT31;52423;43.512;5.220;2023-07-31T03:06:47;22.28;50.01
65707;SHT31;52423;43.512;5.220;2023-07-31T03:09:12;22.24;49.55
65707;SHT31;52423;43.512;5.220;2023-07-31T03:11:38;22.22;50.32
65707;SHT31;52423;43.512;5.220;2023-07-31T03:14:03;21.77;51.41
65707;SHT31;52423;43.512;5.220;2023-07-31T03:16:28;21.70;51.72
65707;SHT31;52423;43.512;5.220;2023-07-31T03:18:54;22.01;50.38
65707;SHT31;52423;43.512;5.220;2023-07-31T03:21:20;21.96;51.09
65707;SHT31;52423;43.512;5.220;2023-07-31T03:23:45;21.77;51.26
65707;SHT31;52423;43.512;5.220;2023-07-31T03:26:10;21.87;50.82
65707;SHT31;52423;43.512;5.220;2023-07-31T03:28:36;21.63;51.45
65707;SHT31;52423;43.512;5.220;2023-07-31T03:31:02;21.82;51.13
65707;SHT31;52423;43.512;5.220;2023-07-31T03:33:27;21.72;50.31
65707;SHT31;52423;43.512;5.220;2023-07-31T03:35:53;21.87;50.56
65707;SHT31;52423;43.512;5.220;2023-07-31T03:38:19;21.93;50.10
65707;SHT31;52423;43.512;5.220;2023-07-31T03:40:44;21.87;50.02
65707;SHT31;52423;43.512;5.220;2023-07-31T03:43:10;21.83;50.61
65707;SHT31;52423;43.512;5.220;2023-07-31T03:45:35;21.89;49.89
65707;SHT31;52423;43.512;5.220;2023-07-31T03:48:01;21.94;49.58
65707;SHT31;52423;43.512;5.220;2023-07-31T03:50:26;21.89;49.82
65707;SHT31;52423;43.512;5.220;2023-07-31T03:52:52;21.83;50.26
65707;SHT31;52423;43.512;5.220;2023-07-31T03:55:17;21.86;50.01
65707;SHT31;52423;43.512;5.220;2023-07-31T03:57:43;21.76;49.87
65707;SHT31;52423;43.512;5.220;2023-07-31T04:00:09;21.60;50.32
65707;SHT31;52423;43.512;5.220;2023-07-31T04:02:35;21.67;50.47
65707;SHT31;52423;43.512;5.220;2023-07-31T04:05:00;21.59;50.51
65707;SHT31;52423;43.512;5.220;2023-07-31T04:07:26;21.60;51.12
65707;SHT31;52423;43.512;5.220;2023-07-31T04:09:51;21.47;50.52
65707;SHT31;52423;43.512;5.220;2023-07-31T04:12:16;21.49;50.59
65707;SHT31;52423;43.512;5.220;2023-07-31T04:14:42;21.41;51.43
65707;SHT31;52423;43.512;5.220;2023-07-31T04:17:07;21.33;51.14
65707;SHT31;52423;43.512;5.220;2023-07-31T04:19:33;21.46;50.77
65707;SHT31;52423;43.512;5.220;2023-07-31T04:21:58;21.26;51.43
65707;SHT31;52423;43.512;5.220;2023-07-31T04:24:23;21.29;51.43
65707;SHT31;52423;43.512;5.220;2023-07-31T04:26:52;21.24;51.71
65707;SHT31;52423;43.512;5.220;2023-07-31T04:29:18;21.45;51.66
65707;SHT31;52423;43.512;5.220;2023-07-31T04:31:43;21.26;51.53
65707;SHT31;52423;43.512;5.220;2023-07-31T04:34:09;21.33;52.27
65707;SHT31;52423;43.512;5.220;2023-07-31T04:36:34;21.29;52.56
65707;SHT31;52423;43.512;5.220;2023-07-31T04:39:00;21.41;51.77
65707;SHT31;52423;43.512;5.220;2023-07-31T04:41:26;21.35;51.64
65707;SHT31;52423;43.512;5.220;2023-07-31T04:43:51;21.38;52.27
65707;SHT31;52423;43.512;5.220;2023-07-31T04:46:17;21.35;52.07
65707;SHT31;52423;43.512;5.220;2023-07-31T04:48:43;21.29;51.97
65707;SHT31;52423;43.512;5.220;2023-07-31T04:51:08;21.31;52.00
65707;SHT31;52423;43.512;5.220;2023-07-31T04:53:35;21.18;52.37
65707;SHT31;52423;43.512;5.220;2023-07-31T04:56:00;21.19;52.48
65707;SHT31;52423;43.512;5.220;2023-07-31T04:58:26;21.12;52.40
65707;SHT31;52423;43.512;5.220;2023-07-31T05:00:51;21.11;53.25
65707;SHT31;52423;43.512;5.220;2023-07-31T05:03:17;21.16;52.76
65707;SHT31;52423;43.512;5.220;2023-07-31T05:05:42;21.21;52.79
65707;SHT31;52423;43.512;5.220;2023-07-31T05:08:07;21.12;52.18
65707;SHT31;52423;43.512;5.220;2023-07-31T05:10:33;21.11;52.48
65707;SHT31;52423;43.512;5.220;2023-07-31T05:12:58;21.22;51.93
65707;SHT31;52423;43.512;5.220;2023-07-31T05:15:24;21.18;51.99
65707;SHT31;52423;43.512;5.220;2023-07-31T05:17:49;21.19;51.91
65707;SHT31;52423;43.512;5.220;2023-07-31T05:20:15;21.24;51.62
65707;SHT31;52423;43.512;5.220;2023-07-31T05:22:40;21.22;52.03
65707;SHT31;52423;43.512;5.220;2023-07-31T05:25:06;21.21;52.17
65707;SHT31;52423;43.512;5.220;2023-07-31T05:27:32;21.22;51.79
65707;SHT31;52423;43.512;5.220;2023-07-31T05:29:57;21.25;51.75
65707;SHT31;52423;43.512;5.220;2023-07-31T05:32:23;21.28;51.62
65707;SHT31;52423;43.512;5.220;2023-07-31T05:34:51;21.32;51.66
65707;SHT31;52423;43.512;5.220;2023-07-31T05:37:17;21.29;52.00
65707;SHT31;52423;43.512;5.220;2023-07-31T05:39:42;21.38;51.76
65707;SHT31;52423;43.512;5.220;2023-07-31T05:42:08;21.46;51.66
65707;SHT31;52423;43.512;5.220;2023-07-31T05:44:33;21.46;51.60
65707;SHT31;52423;43.512;5.220;2023-07-31T05:46:59;21.47;50.78
65707;SHT31;52423;43.512;5.220;2023-07-31T05:49:24;21.49;50.74
65707;SHT31;52423;43.512;5.220;2023-07-31T05:51:50;21.59;50.87
65707;SHT31;52423;43.512;5.220;2023-07-31T05:54:15;21.57;50.97
65707;SHT31;52423;43.512;5.220;2023-07-31T05:56:41;21.66;50.60
65707;SHT31;52423;43.512;5.220;2023-07-31T05:59:06;21.72;50.37
65707;SHT31;52423;43.512;5.220;2023-07-31T06:01:31;21.74;50.66
65707;SHT31;52423;43.512;5.220;2023-07-31T06:03:57;21.70;50.23
65707;SHT31;52423;43.512;5.220;2023-07-31T06:06:22;21.74;50.00
65707;SHT31;52423;43.512;5.220;2023-07-31T06:08:48;21.73;49.83
65707;SHT31;52423;43.512;5.220;2023-07-31T06:11:13;21.72;50.05
65707;SHT31;52423;43.512;5.220;2023-07-31T06:13:38;21.79;50.11
65707;SHT31;52423;43.512;5.220;2023-07-31T06:16:04;21.86;49.97
65707;SHT31;52423;43.512;5.220;2023-07-31T06:18:34;21.86;50.50
65707;SHT31;52423;43.512;5.220;2023-07-31T06:20:59;21.87;49.78
65707;SHT31;52423;43.512;5.220;2023-07-31T06:23:25;21.89;49.64
65707;SHT31;52423;43.512;5.220;2023-07-31T06:25:50;21.94;49.86
65707;SHT31;52423;43.512;5.220;2023-07-31T06:28:16;21.90;49.60
65707;SHT31;52423;43.512;5.220;2023-07-31T06:30:41;21.98;49.62
65707;SHT31;52423;43.512;5.220;2023-07-31T06:33:06;21.93;49.45
65707;SHT31;52423;43.512;5.220;2023-07-31T06:35:32;22.03;49.43
65707;SHT31;52423;43.512;5.220;2023-07-31T06:37:57;22.03;50.02
65707;SHT31;52423;43.512;5.220;2023-07-31T06:40:23;22.01;49.66
65707;SHT31;52423;43.512;5.220;2023-07-31T06:42:48;22.08;49.48
65707;SHT31;52423;43.512;5.220;2023-07-31T06:45:14;22.14;49.87
65707;SHT31;52423;43.512;5.220;2023-07-31T06:47:39;22.33;50.16
65707;SHT31;52423;43.512;5.220;2023-07-31T06:50:05;22.34;48.91
65707;SHT31;52423;43.512;5.220;2023-07-31T06:52:30;22.37;48.70
65707;SHT31;52423;43.512;5.220;2023-07-31T06:55:19;22.49;48.61
65707;SHT31;52423;43.512;5.220;2023-07-31T06:57:45;22.48;49.10
65707;SHT31;52423;43.512;5.220;2023-07-31T07:00:11;22.54;49.07
65707;SHT31;52423;43.512;5.220;2023-07-31T07:02:36;22.64;48.74
65707;SHT31;52423;43.512;5.220;2023-07-31T07:05:02;22.64;48.13
65707;SHT31;52423;43.512;5.220;2023-07-31T07:07:28;22.71;48.55
65707;SHT31;52423;43.512;5.220;2023-07-31T07:09:53;22.76;47.97
65707;SHT31;52423;43.512;5.220;2023-07-31T07:12:18;22.76;47.88
65707;SHT31;52423;43.512;5.220;2023-07-31T07:14:44;22.82;46.92
65707;SHT31;52423;43.512;5.220;2023-07-31T07:17:11;22.85;47.47
65707;SHT31;52423;43.512;5.220;2023-07-31T07:19:40;22.81;47.29
65707;SHT31;52423;43.512;5.220;2023-07-31T07:22:06;22.93;47.17
65707;SHT31;52423;43.512;5.220;2023-07-31T07:24:31;23.10;48.20
65707;SHT31;52423;43.512;5.220;2023-07-31T07:26:56;23.22;47.54
65707;SHT31;52423;43.512;5.220;2023-07-31T07:29:22;23.24;46.57
65707;SHT31;52423;43.512;5.220;2023-07-31T07:31:47;23.27;46.31
65707;SHT31;52423;43.512;5.220;2023-07-31T07:34:13;23.27;46.29
65707;SHT31;52423;43.512;5.220;2023-07-31T07:36:38;23.37;46.14
65707;SHT31;52423;43.512;5.220;2023-07-31T07:39:04;23.49;46.95
65707;SHT31;52423;43.512;5.220;2023-07-31T07:41:29;23.54;45.82
65707;SHT31;52423;43.512;5.220;2023-07-31T07:43:55;23.74;45.88
65707;SHT31;52423;43.512;5.220;2023-07-31T07:46:20;23.65;45.45
65707;SHT31;52423;43.512;5.220;2023-07-31T07:48:45;23.51;45.56
65707;SHT31;52423;43.512;5.220;2023-07-31T07:51:11;23.53;45.72
65707;SHT31;52423;43.512;5.220;2023-07-31T07:53:36;23.57;45.02
65707;SHT31;52423;43.512;5.220;2023-07-31T07:56:01;23.74;45.41
65707;SHT31;52423;43.512;5.220;2023-07-31T07:58:27;23.71;44.80
65707;SHT31;52423;43.512;5.220;2023-07-31T08:00:52;23.78;44.79
65707;SHT31;52423;43.512;5.220;2023-07-31T08:03:18;23.81;45.33
65707;SHT31;52423;43.512;5.220;2023-07-31T08:05:44;24.08;44.75
65707;SHT31;52423;43.512;5.220;2023-07-31T08:08:14;24.11;44.27
65707;SHT31;52423;43.512;5.220;2023-07-31T08:10:40;24.11;44.03
65707;SHT31;52423;43.512;5.220;2023-07-31T08:13:06;24.11;44.30
65707;SHT31;52423;43.512;5.220;2023-07-31T08:15:31;24.46;44.98
65707;SHT31;52423;43.512;5.220;2023-07-31T08:17:56;24.63;44.73
65707;SHT31;52423;43.512;5.220;2023-07-31T08:20:22;24.76;44.11
65707;SHT31;52423;43.512;5.220;2023-07-31T08:22:47;24.73;43.32
65707;SHT31;52423;43.512;5.220;2023-07-31T08:25:12;24.84;43.10
65707;SHT31;52423;43.512;5.220;2023-07-31T08:27:38;24.80;42.90
65707;SHT31;52423;43.512;5.220;2023-07-31T08:30:04;24.82;43.15
65707;SHT31;52423;43.512;5.220;2023-07-31T08:32:29;24.80;43.60
65707;SHT31;52423;43.512;5.220;2023-07-31T08:34:55;24.93;42.40
65707;SHT31;52423;43.512;5.220;2023-07-31T08:37:20;25.17;43.26
65707;SHT31;52423;43.512;5.220;2023-07-31T08:39:45;25.27;42.07
65707;SHT31;52423;43.512;5.220;2023-07-31T08:42:12;25.25;42.18
65707;SHT31;52423;43.512;5.220;2023-07-31T08:44:37;25.34;42.12
65707;SHT31;52423;43.512;5.220;2023-07-31T08:47:03;25.63;42.03
65707;SHT31;52423;43.512;5.220;2023-07-31T08:49:30;25.62;42.01
65707;SHT31;52423;43.512;5.220;2023-07-31T08:51:56;25.65;41.09
65707;SHT31;52423;43.512;5.220;2023-07-31T08:54:23;25.65;42.05
65707;SHT31;52423;43.512;5.220;2023-07-31T08:56:50;25.54;41.09
65707;SHT31;52423;43.512;5.220;2023-07-31T08:59:17;25.65;40.47
65707;SHT31;52423;43.512;5.220;2023-07-31T09:01:45;25.72;41.71
65707;SHT31;52423;43.512;5.220;2023-07-31T09:04:16;25.88;40.92
65707;SHT31;52423;43.512;5.220;2023-07-31T09:06:43;26.09;41.16
65707;SHT31;52423;43.512;5.220;2023-07-31T09:09:09;26.17;40.73
65707;SHT31;52423;43.512;5.220;2023-07-31T09:11:35;26.24;40.74
65707;SHT31;52423;43.512;5.220;2023-07-31T09:14:00;26.23;40.78
65707;SHT31;52423;43.512;5.220;2023-07-31T09:16:32;26.40;40.55
65707;SHT31;52423;43.512;5.220;2023-07-31T09:18:58;26.44;40.76
65707;SHT31;52423;43.512;5.220;2023-07-31T09:21:24;26.61;39.01
65707;SHT31;52423;43.512;5.220;2023-07-31T09:23:51;26.43;38.99
65707;SHT31;52423;43.512;5.220;2023-07-31T09:26:29;26.51;39.92
65707;SHT31;52423;43.512;5.220;2023-07-31T09:28:56;26.48;38.94
65707;SHT31;52423;43.512;5.220;2023-07-31T09:31:42;26.55;38.73
65707;SHT31;52423;43.512;5.220;2023-07-31T09:34:08;26.55;39.18
65707;SHT31;52423;43.512;5.220;2023-07-31T09:36:40;26.43;39.21
65707;SHT31;52423;43.512;5.220;2023-07-31T09:39:09;26.67;39.98
65707;SHT31;52423;43.512;5.220;2023-07-31T09:41:39;26.85;38.22
65707;SHT31;52423;43.512;5.220;2023-07-31T09:44:05;26.98;38.01
65707;SHT31;52423;43.512;5.220;2023-07-31T09:46:30;27.01;37.92
65707;SHT31;52423;43.512;5.220;2023-07-31T09:49:13;27.19;39.23
65707;SHT31;52423;43.512;5.220;2023-07-31T09:51:40;27.28;38.43
65707;SHT31;52423;43.512;5.220;2023-07-31T09:54:13;27.52;37.87
65707;SHT31;52423;43.512;5.220;2023-07-31T09:56:44;27.25;36.98
65707;SHT31;52423;43.512;5.220;2023-07-31T09:59:15;27.38;37.26
65707;SHT31;52423;43.512;5.220;2023-07-31T10:01:41;27.46;37.50
65707;SHT31;52423;43.512;5.220;2023-07-31T10:04:08;27.43;38.05
65707;SHT31;52423;43.512;5.220;2023-07-31T10:06:35;27.53;37.61
65707;SHT31;52423;43.512;5.220;2023-07-31T10:09:03;27.73;38.02
65707;SHT31;52423;43.512;5.220;2023-07-31T10:11:36;27.91;37.39
65707;SHT31;52423;43.512;5.220;2023-07-31T10:14:04;27.77;36.36
65707;SHT31;52423;43.512;5.220;2023-07-31T10:16:31;28.01;36.05
65707;SHT31;52423;43.512;5.220;2023-07-31T10:18:57;28.34;36.83
65707;SHT31;52423;43.512;5.220;2023-07-31T10:21:23;28.15;36.71
65707;SHT31;52423;43.512;5.220;2023-07-31T10:23:49;28.25;35.87
65707;SHT31;52423;43.512;5.220;2023-07-31T10:26:17;28.32;36.27
65707;SHT31;52423;43.512;5.220;2023-07-31T10:28:45;28.34;35.36
65707;SHT31;52423;43.512;5.220;2023-07-31T10:31:12;28.24;36.01
65707;SHT31;52423;43.512;5.220;2023-07-31T10:33:38;28.58;35.00
65707;SHT31;52423;43.512;5.220;2023-07-31T10:36:17;28.48;35.33
65707;SHT31;52423;43.512;5.220;2023-07-31T10:38:43;28.58;36.12
65707;SHT31;52423;43.512;5.220;2023-07-31T10:41:09;28.72;34.90
65707;SHT31;52423;43.512;5.220;2023-07-31T10:43:37;28.71;35.19
65707;SHT31;52423;43.512;5.220;2023-07-31T10:46:11;28.71;35.08
65707;SHT31;52423;43.512;5.220;2023-07-31T10:48:40;28.63;35.19
65707;SHT31;52423;43.512;5.220;2023-07-31T10:51:10;28.85;34.98
65707;SHT31;52423;43.512;5.220;2023-07-31T10:53:37;28.99;34.70
65707;SHT31;52423;43.512;5.220;2023-07-31T10:56:04;28.96;34.67
65707;SHT31;52423;43.512;5.220;2023-07-31T10:58:31;29.02;36.04
65707;SHT31;52423;43.512;5.220;2023-07-31T11:01:02;29.14;35.27
65707;SHT31;52423;43.512;5.220;2023-07-31T11:03:46;29.35;34.87
65707;SHT31;52423;43.512;5.220;2023-07-31T11:06:14;29.49;34.92
65707;SHT31;52423;43.512;5.220;2023-07-31T11:08:49;29.82;34.76
65707;SHT31;52423;43.512;5.220;2023-07-31T11:11:17;29.75;34.87
65707;SHT31;52423;43.512;5.220;2023-07-31T11:13:46;29.89;34.31
65707;SHT31;52423;43.512;5.220;2023-07-31T11:16:15;29.89;34.09
65707;SHT31;52423;43.512;5.220;2023-07-31T11:18:45;30.01;31.64
65707;SHT31;52423;43.512;5.220;2023-07-31T11:21:18;29.97;32.76
65707;SHT31;52423;43.512;5.220;2023-07-31T11:23:52;29.98;32.92
65707;SHT31;52423;43.512;5.220;2023-07-31T11:26:18;30.37;32.05
65707;SHT31;52423;43.512;5.220;2023-07-31T11:28:46;30.33;31.10
65707;SHT31;52423;43.512;5.220;2023-07-31T11:31:12;30.40;31.99
65707;SHT31;52423;43.512;5.220;2023-07-31T11:33:37;30.33;32.31
65707;SHT31;52423;43.512;5.220;2023-07-31T11:36:03;30.09;32.68
65707;SHT31;52423;43.512;5.220;2023-07-31T11:38:33;30.36;31.95
65707;SHT31;52423;43.512;5.220;2023-07-31T11:41:04;30.44;31.73
65707;SHT31;52423;43.512;5.220;2023-07-31T11:43:31;30.46;32.19
65707;SHT31;52423;43.512;5.220;2023-07-31T11:45:58;30.32;31.56
65707;SHT31;52423;43.512;5.220;2023-07-31T11:48:27;30.44;31.08
65707;SHT31;52423;43.512;5.220;2023-07-31T11:51:00;30.36;31.13
65707;SHT31;52423;43.512;5.220;2023-07-31T11:53:43;30.35;31.68
65707;SHT31;52423;43.512;5.220;2023-07-31T11:56:12;30.63;31.54
65707;SHT31;52423;43.512;5.220;2023-07-31T11:58:38;30.67;31.15
65707;SHT31;52423;43.512;5.220;2023-07-31T12:01:05;30.83;31.00
65707;SHT31;52423;43.512;5.220;2023-07-31T12:03:31;30.62;30.09
65707;SHT31;52423;43.512;5.220;2023-07-31T12:05:58;30.66;29.67
65707;SHT31;52423;43.512;5.220;2023-07-31T12:08:24;30.70;31.08
65707;SHT31;52423;43.512;5.220;2023-07-31T12:10:51;30.93;30.95
65707;SHT31;52423;43.512;5.220;2023-07-31T12:13:22;30.73;30.04
65707;SHT31;52423;43.512;5.220;2023-07-31T12:15:48;30.84;29.56
65707;SHT31;52423;43.512;5.220;2023-07-31T12:18:15;31.00;30.39
65707;SHT31;52423;43.512;5.220;2023-07-31T12:20:55;31.07;30.06
65707;SHT31;52423;43.512;5.220;2023-07-31T12:23:41;30.84;28.63
65707;SHT31;52423;43.512;5.220;2023-07-31T12:26:14;30.83;29.26
65707;SHT31;52423;43.512;5.220;2023-07-31T12:28:48;30.62;29.48
65707;SHT31;52423;43.512;5.220;2023-07-31T12:31:16;30.91;29.75
65707;SHT31;52423;43.512;5.220;2023-07-31T12:33:45;30.97;29.90
65707;SHT31;52423;43.512;5.220;2023-07-31T12:36:17;31.25;30.42
65707;SHT31;52423;43.512;5.220;2023-07-31T12:38:43;31.01;29.31
65707;SHT31;52423;43.512;5.220;2023-07-31T12:41:10;31.12;28.61
65707;SHT31;52423;43.512;5.220;2023-07-31T12:43:36;31.14;28.48
65707;SHT31;52423;43.512;5.220;2023-07-31T12:46:02;31.22;28.39
65707;SHT31;52423;43.512;5.220;2023-07-31T12:48:28;31.39;27.71
65707;SHT31;52423;43.512;5.220;2023-07-31T12:50:53;31.25;28.97
65707;SHT31;52423;43.512;5.220;2023-07-31T12:53:19;31.11;29.22
65707;SHT31;52423;43.512;5.220;2023-07-31T12:55:44;31.10;28.93
65707;SHT31;52423;43.512;5.220;2023-07-31T12:58:10;31.31;28.42
65707;SHT31;52423;43.512;5.220;2023-07-31T13:00:35;31.30;28.17
65707;SHT31;52423;43.512;5.220;2023-07-31T13:03:01;31.31;28.94
65707;SHT31;52423;43.512;5.220;2023-07-31T13:05:27;31.41;28.28
65707;SHT31;52423;43.512;5.220;2023-07-31T13:07:53;31.68;28.40
65707;SHT31;52423;43.512;5.220;2023-07-31T13:10:19;31.79;28.22
65707;SHT31;52423;43.512;5.220;2023-07-31T13:12:44;31.99;28.20
65707;SHT31;52423;43.512;5.220;2023-07-31T13:15:10;31.57;26.86
65707;SHT31;52423;43.512;5.220;2023-07-31T13:17:36;31.86;26.52
65707;SHT31;52423;43.512;5.220;2023-07-31T13:20:02;31.81;25.48
65707;SHT31;52423;43.512;5.220;2023-07-31T13:22:28;31.88;26.81
65707;SHT31;52423;43.512;5.220;2023-07-31T13:24:54;31.59;27.23
65707;SHT31;52423;43.512;5.220;2023-07-31T13:27:19;31.41;26.86
65707;SHT31;52423;43.512;5.220;2023-07-31T13:29:50;31.53;26.69
65707;SHT31;52423;43.512;5.220;2023-07-31T13:32:16;31.82;26.32
65707;SHT31;52423;43.512;5.220;2023-07-31T13:34:43;31.89;26.57
65707;SHT31;52423;43.512;5.220;2023-07-31T13:37:08;31.90;27.07
65707;SHT31;52423;43.512;5.220;2023-07-31T13:39:34;31.92;27.59
65707;SHT31;52423;43.512;5.220;2023-07-31T13:42:00;32.08;26.34
65707;SHT31;52423;43.512;5.220;2023-07-31T13:44:26;32.09;26.70
65707;SHT31;52423;43.512;5.220;2023-07-31T13:46:51;32.10;25.95
65707;SHT31;52423;43.512;5.220;2023-07-31T13:49:17;32.00;26.37
65707;SHT31;52423;43.512;5.220;2023-07-31T13:51:42;32.10;25.46
65707;SHT31;52423;43.512;5.220;2023-07-31T13:54:08;32.06;25.49
65707;SHT31;52423;43.512;5.220;2023-07-31T13:56:33;32.09;25.34
65707;SHT31;52423;43.512;5.220;2023-07-31T13:58:59;32.09;25.04
65707;SHT31;52423;43.512;5.220;2023-07-31T14:01:26;31.96;26.03
65707;SHT31;52423;43.512;5.220;2023-07-31T14:03:51;31.90;26.19
65707;SHT31;52423;43.512;5.220;2023-07-31T14:06:17;31.92;25.85
65707;SHT31;52423;43.512;5.220;2023-07-31T14:08:42;32.02;25.48
65707;SHT31;52423;43.512;5.220;2023-07-31T14:11:08;32.09;25.77
65707;SHT31;52423;43.512;5.220;2023-07-31T14:13:33;31.92;25.12
65707;SHT31;52423;43.512;5.220;2023-07-31T14:15:58;31.93;24.96
65707;SHT31;52423;43.512;5.220;2023-07-31T14:18:24;31.76;24.60
65707;SHT31;52423;43.512;5.220;2023-07-31T14:20:49;31.89;24.54
65707;SHT31;52423;43.512;5.220;2023-07-31T14:23:15;31.88;24.27
65707;SHT31;52423;43.512;5.220;2023-07-31T14:25:41;31.88;24.18
65707;SHT31;52423;43.512;5.220;2023-07-31T14:28:06;31.94;24.14
65707;SHT31;52423;43.512;5.220;2023-07-31T14:30:31;32.00;23.71
65707;SHT31;52423;43.512;5.220;2023-07-31T14:32:57;32.09;23.35
65707;SHT31;52423;43.512;5.220;2023-07-31T14:35:22;32.13;24.15
65707;SHT31;52423;43.512;5.220;2023-07-31T14:37:48;31.89;24.48
65707;SHT31;52423;43.512;5.220;2023-07-31T14:40:13;31.90;24.81
65707;SHT31;52423;43.512;5.220;2023-07-31T14:42:39;32.10;23.67
65707;SHT31;52423;43.512;5.220;2023-07-31T14:45:05;32.14;21.91
65707;SHT31;52423;43.512;5.220;2023-07-31T14:47:31;32.14;22.55
65707;SHT31;52423;43.512;5.220;2023-07-31T14:49:57;32.24;23.24
65707;SHT31;52423;43.512;5.220;2023-07-31T14:52:23;32.13;22.92
65707;SHT31;52423;43.512;5.220;2023-07-31T14:54:48;32.00;23.95
65707;SHT31;52423;43.512;5.220;2023-07-31T14:57:14;32.10;23.35
65707;SHT31;52423;43.512;5.220;2023-07-31T14:59:39;32.12;23.43
65707;SHT31;52423;43.512;5.220;2023-07-31T15:02:05;32.16;23.05
65707;SHT31;52423;43.512;5.220;2023-07-31T15:04:31;32.14;23.14
65707;SHT31;52423;43.512;5.220;2023-07-31T15:06:56;32.10;23.78
65707;SHT31;52423;43.512;5.220;2023-07-31T15:09:22;32.26;22.69
65707;SHT31;52423;43.512;5.220;2023-07-31T15:11:47;32.10;22.80
65707;SHT31;52423;43.512;5.220;2023-07-31T15:14:13;32.22;22.30
65707;SHT31;52423;43.512;5.220;2023-07-31T15:16:38;32.24;22.97
65707;SHT31;52423;43.512;5.220;2023-07-31T15:19:04;32.31;22.56
65707;SHT31;52423;43.512;5.220;2023-07-31T15:21:29;32.22;23.45
65707;SHT31;52423;43.512;5.220;2023-07-31T15:23:55;32.29;23.34
65707;SHT31;52423;43.512;5.220;2023-07-31T15:26:20;32.30;23.71
65707;SHT31;52423;43.512;5.220;2023-07-31T15:28:50;32.30;22.93
65707;SHT31;52423;43.512;5.220;2023-07-31T15:31:20;32.33;23.57
65707;SHT31;52423;43.512;5.220;2023-07-31T15:33:47;32.34;23.65